BAW33CX EGLL-EBBR
Flight info
| Callsign | BAW33CX |
|---|---|
| Flight time | 0h 45m |
| Altitude | 23000 |
| Route | DET Q70 KOK |
| Aircraft | A21N/M-SDE2E3FGHIRWXY/LB1 |
Departure
| Time | 2026-05-05 10:13 |
|---|---|
| Airport | London Heathrow Airport (EGLL) |
Arrival
| Time | 2026-05-05 10:59 |
|---|---|
| Airport | Brussels Airport (EBBR) |
| Time | Latitude | Longitude | Altitude | Speed | Heading |
|---|---|---|---|---|---|
| 2026-05-05 09:51 | 51.47232 | -0.48581 | 92 ft | 0 kts | 270° |
| 2026-05-05 10:05 | 51.47232 | -0.48571 | 92 ft | 0 kts | 270° |
| 2026-05-05 10:05 | 51.47232 | -0.48535 | 92 ft | 0 kts | 270° |
| 2026-05-05 10:05 | 51.47235 | -0.48497 | 92 ft | 0 kts | 242° |
| 2026-05-05 10:05 | 51.47251 | -0.48476 | 92 ft | 0 kts | 181° |
| 2026-05-05 10:06 | 51.47266 | -0.48476 | 92 ft | 0 kts | 180° |
| 2026-05-05 10:08 | 51.47265 | -0.48476 | 92 ft | 0 kts | 180° |
| 2026-05-05 10:08 | 51.47250 | -0.48476 | 92 ft | 4 kts | 180° |
| 2026-05-05 10:08 | 51.47206 | -0.48476 | 92 ft | 9 kts | 180° |
| 2026-05-05 10:08 | 51.47130 | -0.48475 | 92 ft | 13 kts | 180° |
| 2026-05-05 10:09 | 51.47024 | -0.48475 | 92 ft | 17 kts | 180° |
| 2026-05-05 10:09 | 51.46894 | -0.48473 | 92 ft | 20 kts | 179° |
| 2026-05-05 10:09 | 51.46834 | -0.48472 | 92 ft | 0 kts | 179° |
| 2026-05-05 10:10 | 51.46821 | -0.48472 | 92 ft | 6 kts | 179° |
| 2026-05-05 10:10 | 51.46748 | -0.48471 | 92 ft | 14 kts | 179° |
| 2026-05-05 10:10 | 51.46635 | -0.48470 | 93 ft | 18 kts | 180° |
| 2026-05-05 10:11 | 51.46614 | -0.48470 | 93 ft | 3 kts | 180° |
| 2026-05-05 10:11 | 51.46578 | -0.48470 | 93 ft | 8 kts | 180° |
| 2026-05-05 10:11 | 51.46510 | -0.48466 | 94 ft | 12 kts | 165° |
| 2026-05-05 10:11 | 51.46479 | -0.48373 | 94 ft | 0 kts | 90° |
| 2026-05-05 10:12 | 51.46479 | -0.48346 | 94 ft | 16 kts | 90° |
| 2026-05-05 10:12 | 51.46479 | -0.47675 | 91 ft | 102 kts | 89° |
| 2026-05-05 10:13 | 51.46484 | -0.46159 | 96 ft | 167 kts | 89° |
| 2026-05-05 10:13 | 51.46461 | -0.44289 | 842 ft | 164 kts | 89° |
| 2026-05-05 10:13 | 51.46425 | -0.42480 | 1792 ft | 167 kts | 88° |
| 2026-05-05 10:13 | 51.46290 | -0.40584 | 2598 ft | 179 kts | 103° |
| 2026-05-05 10:14 | 51.45539 | -0.38876 | 3441 ft | 201 kts | 129° |
| 2026-05-05 10:14 | 51.44400 | -0.37274 | 4088 ft | 237 kts | 136° |
| 2026-05-05 10:14 | 51.43437 | -0.35022 | 4824 ft | 256 kts | 105° |
| 2026-05-05 10:14 | 51.43089 | -0.32197 | 5953 ft | 262 kts | 97° |
| 2026-05-05 10:15 | 51.42859 | -0.29271 | 7120 ft | 268 kts | 96° |
| 2026-05-05 10:15 | 51.42640 | -0.26267 | 8267 ft | 275 kts | 96° |
| 2026-05-05 10:15 | 51.42414 | -0.23196 | 9454 ft | 281 kts | 96° |
| 2026-05-05 10:15 | 51.42175 | -0.20023 | 10442 ft | 296 kts | 96° |
| 2026-05-05 10:16 | 51.41920 | -0.16602 | 10934 ft | 325 kts | 96° |
| 2026-05-05 10:16 | 51.41645 | -0.12863 | 11471 ft | 350 kts | 96° |
| 2026-05-05 10:16 | 51.41362 | -0.08981 | 12276 ft | 361 kts | 96° |
| 2026-05-05 10:16 | 51.41069 | -0.04950 | 13315 ft | 366 kts | 96° |
| 2026-05-05 10:17 | 51.40774 | -0.00897 | 14382 ft | 368 kts | 96° |
| 2026-05-05 10:17 | 51.40487 | 0.03185 | 15320 ft | 372 kts | 96° |
| 2026-05-05 10:17 | 51.40210 | 0.07342 | 16161 ft | 378 kts | 96° |
| 2026-05-05 10:17 | 51.39932 | 0.11576 | 16977 ft | 385 kts | 97° |
| 2026-05-05 10:18 | 51.39622 | 0.15874 | 17614 ft | 392 kts | 97° |
| 2026-05-05 10:18 | 51.39301 | 0.20224 | 17899 ft | 394 kts | 97° |
| 2026-05-05 10:18 | 51.38968 | 0.24591 | 17990 ft | 395 kts | 97° |
| 2026-05-05 10:18 | 51.38641 | 0.28951 | 17999 ft | 395 kts | 97° |
| 2026-05-05 10:19 | 51.38317 | 0.33322 | 18138 ft | 395 kts | 97° |
| 2026-05-05 10:19 | 51.37993 | 0.37660 | 18812 ft | 401 kts | 97° |
| 2026-05-05 10:19 | 51.37661 | 0.42111 | 19496 ft | 405 kts | 98° |
| 2026-05-05 10:19 | 51.37323 | 0.46587 | 20278 ft | 407 kts | 98° |
| 2026-05-05 10:20 | 51.36973 | 0.51109 | 21002 ft | 411 kts | 98° |
| 2026-05-05 10:20 | 51.36624 | 0.55655 | 21725 ft | 414 kts | 98° |
| 2026-05-05 10:20 | 51.36275 | 0.60253 | 22447 ft | 419 kts | 98° |
| 2026-05-05 10:20 | 51.35922 | 0.64898 | 22831 ft | 422 kts | 99° |
| 2026-05-05 10:21 | 51.35562 | 0.69564 | 22979 ft | 431 kts | 99° |
| 2026-05-05 10:21 | 51.35180 | 0.74424 | 23012 ft | 450 kts | 99° |
| 2026-05-05 10:21 | 51.34779 | 0.79483 | 23011 ft | 465 kts | 99° |
| 2026-05-05 10:21 | 51.34376 | 0.84627 | 23003 ft | 466 kts | 99° |
| 2026-05-05 10:22 | 51.33970 | 0.89772 | 22992 ft | 466 kts | 99° |
| 2026-05-05 10:22 | 51.33560 | 0.94906 | 22979 ft | 466 kts | 99° |
| 2026-05-05 10:22 | 51.33141 | 1.00050 | 22971 ft | 466 kts | 99° |
| 2026-05-05 10:22 | 51.32733 | 1.05108 | 22971 ft | 466 kts | 99° |
| 2026-05-05 10:23 | 51.32316 | 1.10250 | 22970 ft | 466 kts | 99° |
| 2026-05-05 10:23 | 51.31894 | 1.15381 | 22971 ft | 466 kts | 99° |
| 2026-05-05 10:23 | 51.31467 | 1.20503 | 22967 ft | 466 kts | 99° |
| 2026-05-05 10:23 | 51.31041 | 1.25652 | 22969 ft | 466 kts | 99° |
| 2026-05-05 10:24 | 51.30617 | 1.30786 | 22965 ft | 466 kts | 99° |
| 2026-05-05 10:24 | 51.30185 | 1.35913 | 22965 ft | 466 kts | 99° |
| 2026-05-05 10:24 | 51.29753 | 1.41048 | 22964 ft | 466 kts | 99° |
| 2026-05-05 10:24 | 51.29326 | 1.46181 | 22965 ft | 466 kts | 99° |
| 2026-05-05 10:25 | 51.28891 | 1.51316 | 22965 ft | 466 kts | 99° |
| 2026-05-05 10:25 | 51.28445 | 1.56441 | 22968 ft | 466 kts | 99° |
| 2026-05-05 10:25 | 51.28002 | 1.61563 | 22962 ft | 465 kts | 99° |
| 2026-05-05 10:25 | 51.27562 | 1.66688 | 22961 ft | 466 kts | 99° |
| 2026-05-05 10:26 | 51.27129 | 1.71713 | 22960 ft | 465 kts | 99° |
| 2026-05-05 10:26 | 51.26683 | 1.76843 | 22959 ft | 466 kts | 99° |
| 2026-05-05 10:26 | 51.26236 | 1.81963 | 22958 ft | 466 kts | 99° |
| 2026-05-05 10:26 | 51.25786 | 1.87089 | 22957 ft | 466 kts | 99° |
| 2026-05-05 10:27 | 51.25336 | 1.92214 | 22953 ft | 466 kts | 99° |
| 2026-05-05 10:27 | 51.24878 | 1.97325 | 22956 ft | 466 kts | 100° |
| 2026-05-05 10:27 | 51.24519 | 2.02466 | 22954 ft | 467 kts | 96° |
| 2026-05-05 10:27 | 51.24274 | 2.07630 | 22954 ft | 467 kts | 96° |
| 2026-05-05 10:28 | 51.24032 | 2.12734 | 22948 ft | 467 kts | 96° |
| 2026-05-05 10:28 | 51.23787 | 2.17883 | 22948 ft | 467 kts | 96° |
| 2026-05-05 10:28 | 51.23538 | 2.23059 | 22946 ft | 467 kts | 96° |
| 2026-05-05 10:28 | 51.23283 | 2.28210 | 22943 ft | 467 kts | 96° |
| 2026-05-05 10:29 | 51.23011 | 2.33377 | 22939 ft | 466 kts | 98° |
| 2026-05-05 10:29 | 51.22354 | 2.38405 | 22925 ft | 463 kts | 109° |
| 2026-05-05 10:29 | 51.21059 | 2.43099 | 22926 ft | 462 kts | 121° |
| 2026-05-05 10:29 | 51.19195 | 2.47253 | 22934 ft | 462 kts | 131° |
| 2026-05-05 10:30 | 51.17092 | 2.51118 | 22932 ft | 461 kts | 133° |
| 2026-05-05 10:30 | 51.15004 | 2.54893 | 22935 ft | 461 kts | 132° |
| 2026-05-05 10:30 | 51.12898 | 2.58746 | 22930 ft | 463 kts | 132° |
| 2026-05-05 10:30 | 51.10889 | 2.62720 | 22923 ft | 461 kts | 126° |
| 2026-05-05 10:31 | 51.09391 | 2.67123 | 22608 ft | 451 kts | 113° |
| 2026-05-05 10:31 | 51.08551 | 2.71932 | 22239 ft | 451 kts | 102° |
| 2026-05-05 10:31 | 51.07997 | 2.76828 | 21936 ft | 449 kts | 101° |
| 2026-05-05 10:31 | 51.07449 | 2.81701 | 21659 ft | 447 kts | 102° |
| 2026-05-05 10:32 | 51.06881 | 2.86540 | 21391 ft | 445 kts | 102° |
| 2026-05-05 10:32 | 51.06311 | 2.91286 | 21104 ft | 442 kts | 102° |
| 2026-05-05 10:32 | 51.05738 | 2.96043 | 20363 ft | 433 kts | 102° |
| 2026-05-05 10:32 | 51.05174 | 3.00694 | 19521 ft | 425 kts | 102° |
| 2026-05-05 10:33 | 51.04614 | 3.05258 | 18708 ft | 417 kts | 102° |
| 2026-05-05 10:33 | 51.04066 | 3.09744 | 17879 ft | 413 kts | 102° |
| 2026-05-05 10:33 | 51.03508 | 3.14203 | 17111 ft | 410 kts | 102° |
| 2026-05-05 10:33 | 51.02962 | 3.18622 | 16455 ft | 404 kts | 101° |
| 2026-05-05 10:34 | 51.02436 | 3.22911 | 15811 ft | 399 kts | 101° |
| 2026-05-05 10:34 | 51.01903 | 3.27207 | 15167 ft | 394 kts | 101° |
| 2026-05-05 10:34 | 51.01371 | 3.31448 | 14527 ft | 391 kts | 101° |
| 2026-05-05 10:34 | 51.00842 | 3.35663 | 13895 ft | 387 kts | 101° |
| 2026-05-05 10:35 | 51.00318 | 3.39836 | 13209 ft | 384 kts | 101° |
| 2026-05-05 10:35 | 50.99795 | 3.43994 | 12481 ft | 383 kts | 101° |
| 2026-05-05 10:35 | 50.99272 | 3.48111 | 11833 ft | 377 kts | 101° |
| 2026-05-05 10:35 | 50.98767 | 3.52101 | 11465 ft | 360 kts | 101° |
| 2026-05-05 10:36 | 50.98286 | 3.55876 | 11201 ft | 344 kts | 100° |
| 2026-05-05 10:36 | 50.97824 | 3.59507 | 10998 ft | 328 kts | 100° |
| 2026-05-05 10:36 | 50.97387 | 3.62928 | 10808 ft | 314 kts | 100° |
| 2026-05-05 10:36 | 50.96964 | 3.66248 | 10628 ft | 301 kts | 100° |
| 2026-05-05 10:37 | 50.96555 | 3.69425 | 10442 ft | 289 kts | 100° |
| 2026-05-05 10:37 | 50.96156 | 3.72542 | 9957 ft | 290 kts | 100° |
| 2026-05-05 10:37 | 50.95754 | 3.75673 | 9490 ft | 289 kts | 100° |
| 2026-05-05 10:37 | 50.95352 | 3.78785 | 9096 ft | 285 kts | 101° |
| 2026-05-05 10:38 | 50.94956 | 3.81842 | 8751 ft | 282 kts | 100° |
| 2026-05-05 10:38 | 50.94560 | 3.84887 | 8425 ft | 281 kts | 100° |
| 2026-05-05 10:38 | 50.94165 | 3.87917 | 8114 ft | 281 kts | 101° |
| 2026-05-05 10:38 | 50.93773 | 3.90903 | 7793 ft | 278 kts | 101° |
| 2026-05-05 10:39 | 50.93386 | 3.93880 | 7498 ft | 275 kts | 100° |
| 2026-05-05 10:39 | 50.92997 | 3.96850 | 7181 ft | 275 kts | 100° |
| 2026-05-05 10:39 | 50.92609 | 3.99810 | 6855 ft | 273 kts | 100° |
| 2026-05-05 10:39 | 50.92224 | 4.02731 | 6596 ft | 269 kts | 101° |
| 2026-05-05 10:40 | 50.92094 | 4.03713 | 6544 ft | 268 kts | 100° |
| 2026-05-05 10:40 | 50.91855 | 4.05536 | 6445 ft | 269 kts | 100° |
| 2026-05-05 10:40 | 50.91489 | 4.08309 | 6269 ft | 264 kts | 100° |
| 2026-05-05 10:40 | 50.91031 | 4.11079 | 6048 ft | 256 kts | 110° |
| 2026-05-05 10:41 | 50.90099 | 4.13351 | 5860 ft | 251 kts | 133° |
| 2026-05-05 10:41 | 50.88633 | 4.14858 | 5694 ft | 256 kts | 156° |
| 2026-05-05 10:41 | 50.86909 | 4.15602 | 5523 ft | 256 kts | 164° |
| 2026-05-05 10:41 | 50.85177 | 4.16214 | 5336 ft | 254 kts | 164° |
| 2026-05-05 10:42 | 50.81755 | 4.17616 | 4745 ft | 255 kts | 151° |
| 2026-05-05 10:42 | 50.80386 | 4.19334 | 4097 ft | 252 kts | 125° |
| 2026-05-05 10:42 | 50.79449 | 4.21590 | 3679 ft | 246 kts | 118° |
| 2026-05-05 10:43 | 50.78597 | 4.23851 | 3407 ft | 233 kts | 118° |
| 2026-05-05 10:43 | 50.77780 | 4.25992 | 3039 ft | 223 kts | 118° |
| 2026-05-05 10:43 | 50.76975 | 4.28073 | 2567 ft | 222 kts | 118° |
| 2026-05-05 10:43 | 50.76179 | 4.30122 | 2141 ft | 216 kts | 116° |
| 2026-05-05 10:44 | 50.75639 | 4.32212 | 2008 ft | 195 kts | 103° |
| 2026-05-05 10:44 | 50.75290 | 4.34160 | 2015 ft | 174 kts | 102° |
| 2026-05-05 10:44 | 50.74959 | 4.36017 | 2023 ft | 176 kts | 102° |
| 2026-05-05 10:44 | 50.74969 | 4.37883 | 2012 ft | 174 kts | 75° |
| 2026-05-05 10:45 | 50.75303 | 4.39705 | 2009 ft | 173 kts | 72° |
| 2026-05-05 10:45 | 50.75636 | 4.41544 | 2002 ft | 174 kts | 72° |
| 2026-05-05 10:45 | 50.76255 | 4.43146 | 1997 ft | 173 kts | 46° |
| 2026-05-05 10:45 | 50.77254 | 4.44225 | 2001 ft | 177 kts | 28° |
| 2026-05-05 10:46 | 50.78393 | 4.44917 | 2004 ft | 174 kts | 19° |
| 2026-05-05 10:46 | 50.79561 | 4.45420 | 1999 ft | 173 kts | 16° |
| 2026-05-05 10:46 | 50.80715 | 4.45894 | 1870 ft | 167 kts | 16° |
| 2026-05-05 10:46 | 50.81799 | 4.46335 | 1687 ft | 153 kts | 17° |
| 2026-05-05 10:47 | 50.82765 | 4.46728 | 1483 ft | 143 kts | 16° |
| 2026-05-05 10:47 | 50.83645 | 4.47086 | 1266 ft | 125 kts | 17° |
| 2026-05-05 10:47 | 50.84493 | 4.47432 | 1093 ft | 127 kts | 17° |
| 2026-05-05 10:47 | 50.85342 | 4.47778 | 925 ft | 125 kts | 17° |
| 2026-05-05 10:48 | 50.86174 | 4.48117 | 745 ft | 124 kts | 16° |
| 2026-05-05 10:48 | 50.86982 | 4.48450 | 604 ft | 122 kts | 16° |
| 2026-05-05 10:48 | 50.87827 | 4.48789 | 455 ft | 126 kts | 15° |
| 2026-05-05 10:48 | 50.88659 | 4.49130 | 252 ft | 123 kts | 15° |
| 2026-05-05 10:49 | 50.89482 | 4.49461 | 205 ft | 128 kts | 16° |
| 2026-05-05 10:49 | 50.90473 | 4.49874 | 1018 ft | 164 kts | 15° |
| 2026-05-05 10:49 | 50.91727 | 4.49978 | 1701 ft | 194 kts | 356° |
| 2026-05-05 10:49 | 50.93046 | 4.49723 | 1995 ft | 196 kts | 352° |
| 2026-05-05 10:50 | 50.94318 | 4.48911 | 2031 ft | 200 kts | 333° |
| 2026-05-05 10:50 | 50.95185 | 4.47521 | 2013 ft | 206 kts | 304° |
| 2026-05-05 10:50 | 50.95539 | 4.45311 | 2008 ft | 213 kts | 271° |
| 2026-05-05 10:50 | 50.95087 | 4.42975 | 2011 ft | 242 kts | 239° |
| 2026-05-05 10:51 | 50.93834 | 4.40916 | 2061 ft | 270 kts | 213° |
| 2026-05-05 10:51 | 50.92133 | 4.39721 | 2046 ft | 268 kts | 195° |
| 2026-05-05 10:51 | 50.90329 | 4.38952 | 2027 ft | 268 kts | 193° |
| 2026-05-05 10:51 | 50.88515 | 4.38228 | 2007 ft | 268 kts | 192° |
| 2026-05-05 10:52 | 50.86723 | 4.37526 | 2001 ft | 268 kts | 192° |
| 2026-05-05 10:52 | 50.84906 | 4.36820 | 1997 ft | 269 kts | 192° |
| 2026-05-05 10:52 | 50.83090 | 4.36116 | 1996 ft | 268 kts | 192° |
| 2026-05-05 10:52 | 50.81288 | 4.35402 | 1996 ft | 267 kts | 192° |
| 2026-05-05 10:53 | 50.79545 | 4.34709 | 1988 ft | 250 kts | 190° |
| 2026-05-05 10:53 | 50.77886 | 4.34695 | 1983 ft | 229 kts | 165° |
| 2026-05-05 10:53 | 50.76473 | 4.35598 | 1980 ft | 211 kts | 143° |
| 2026-05-05 10:53 | 50.75444 | 4.37074 | 1966 ft | 191 kts | 123° |
| 2026-05-05 10:54 | 50.74902 | 4.38829 | 1960 ft | 170 kts | 94° |
| 2026-05-05 10:54 | 50.75032 | 4.40636 | 1992 ft | 170 kts | 73° |
| 2026-05-05 10:54 | 50.75473 | 4.42340 | 1994 ft | 166 kts | 55° |
| 2026-05-05 10:54 | 50.76209 | 4.43775 | 1996 ft | 169 kts | 38° |
| 2026-05-05 10:55 | 50.77221 | 4.44543 | 2017 ft | 157 kts | 19° |
| 2026-05-05 10:55 | 50.78281 | 4.44921 | 2031 ft | 156 kts | 16° |
| 2026-05-05 10:55 | 50.79331 | 4.45337 | 2015 ft | 154 kts | 16° |
| 2026-05-05 10:55 | 50.80329 | 4.45738 | 1951 ft | 137 kts | 16° |
| 2026-05-05 10:56 | 50.81192 | 4.46089 | 1776 ft | 125 kts | 17° |
| 2026-05-05 10:56 | 50.82028 | 4.46429 | 1609 ft | 123 kts | 16° |
| 2026-05-05 10:56 | 50.82845 | 4.46761 | 1454 ft | 124 kts | 16° |
| 2026-05-05 10:56 | 50.83679 | 4.47100 | 1281 ft | 124 kts | 17° |
| 2026-05-05 10:57 | 50.84523 | 4.47444 | 1103 ft | 125 kts | 17° |
| 2026-05-05 10:57 | 50.85362 | 4.47786 | 916 ft | 122 kts | 16° |
| 2026-05-05 10:57 | 50.86187 | 4.48122 | 748 ft | 123 kts | 15° |
| 2026-05-05 10:57 | 50.87007 | 4.48457 | 579 ft | 123 kts | 15° |
| 2026-05-05 10:58 | 50.87850 | 4.48796 | 456 ft | 124 kts | 15° |
| 2026-05-05 10:58 | 50.88674 | 4.49137 | 252 ft | 122 kts | 16° |
| 2026-05-05 10:58 | 50.89488 | 4.49462 | 174 ft | 116 kts | 16° |
| 2026-05-05 10:58 | 50.90171 | 4.49744 | 136 ft | 76 kts | 14° |
| 2026-05-05 10:59 | 50.90484 | 4.49871 | 131 ft | 34 kts | 15° |
| 2026-05-05 10:59 | 50.90720 | 4.49926 | 125 ft | 35 kts | 357° |
| 2026-05-05 10:59 | 50.90874 | 4.49816 | 128 ft | 15 kts | 267° |
| 2026-05-05 10:59 | 50.90818 | 4.49656 | 129 ft | 19 kts | 238° |
| 2026-05-05 11:00 | 50.90693 | 4.49572 | 128 ft | 21 kts | 195° |
| 2026-05-05 11:00 | 50.90541 | 4.49508 | 126 ft | 24 kts | 194° |
| 2026-05-05 11:00 | 50.90406 | 4.49453 | 129 ft | 13 kts | 194° |
| 2026-05-05 11:00 | 50.90336 | 4.49354 | 128 ft | 15 kts | 244° |
| 2026-05-05 11:01 | 50.90288 | 4.49189 | 133 ft | 17 kts | 245° |
| 2026-05-05 11:01 | 50.90262 | 4.49100 | 133 ft | 7 kts | 246° |
| 2026-05-05 11:01 | 50.90237 | 4.49016 | 133 ft | 9 kts | 245° |
| 2026-05-05 11:01 | 50.90206 | 4.48912 | 133 ft | 11 kts | 244° |
| 2026-05-05 11:02 | 50.90202 | 4.48901 | 133 ft | 0 kts | 244° |
| 2026-05-05 11:03 | 50.90193 | 4.48871 | 133 ft | 9 kts | 246° |
| 2026-05-05 11:03 | 50.90163 | 4.48753 | 133 ft | 13 kts | 246° |
| 2026-05-05 11:04 | 50.90122 | 4.48623 | 133 ft | 10 kts | 226° |
| 2026-05-05 11:04 | 50.90085 | 4.48620 | 134 ft | 1 kts | 164° |
| 2026-05-05 11:04 | 50.90068 | 4.48622 | 135 ft | 4 kts | 159° |
| 2026-05-05 11:04 | 50.90051 | 4.48633 | 136 ft | 0 kts | 160° |
| 2026-05-05 11:05 | 50.90046 | 4.48637 | 136 ft | 0 kts | 155° |